JAL220 RJBB-RJTT
Flight info
| Callsign | JAL220 |
|---|---|
| Flight time | N/A |
| Altitude | 33000 |
| Route | SOVRI UPRAL YAGYU SHTLE Y71 XAC |
| Aircraft | B738/M-SDE2E3FGHIRWXY/LB1 |
Departure
| Time | 2026-05-04 00:31 |
|---|---|
| Airport | Kansai International Airport (RJBB) |
Arrival
| Time | N/A |
|---|---|
| Airport | Tokyo Haneda International Airport (RJTT) |
| Time | Latitude | Longitude | Altitude | Speed | Heading |
|---|---|---|---|---|---|
| 2026-05-04 00:09 | 34.43100 | 135.23885 | 33 ft | 0 kts | 141° |
| 2026-05-04 00:20 | 34.43109 | 135.23875 | 33 ft | 2 kts | 140° |
| 2026-05-04 00:20 | 34.43121 | 135.23865 | 33 ft | 2 kts | 141° |
| 2026-05-04 00:21 | 34.43133 | 135.23853 | 33 ft | 2 kts | 140° |
| 2026-05-04 00:21 | 34.43144 | 135.23842 | 33 ft | 2 kts | 141° |
| 2026-05-04 00:21 | 34.43157 | 135.23831 | 33 ft | 2 kts | 164° |
| 2026-05-04 00:21 | 34.43172 | 135.23830 | 33 ft | 2 kts | 197° |
| 2026-05-04 00:22 | 34.43184 | 135.23839 | 33 ft | 0 kts | 226° |
| 2026-05-04 00:22 | 34.43188 | 135.23845 | 33 ft | 1 kts | 232° |
| 2026-05-04 00:22 | 34.43189 | 135.23846 | 33 ft | 0 kts | 231° |
| 2026-05-04 00:24 | 34.43181 | 135.23834 | 33 ft | 4 kts | 231° |
| 2026-05-04 00:24 | 34.43151 | 135.23789 | 33 ft | 9 kts | 232° |
| 2026-05-04 00:24 | 34.43098 | 135.23708 | 33 ft | 14 kts | 229° |
| 2026-05-04 00:24 | 34.43024 | 135.23595 | 33 ft | 18 kts | 248° |
| 2026-05-04 00:25 | 34.43008 | 135.23450 | 33 ft | 18 kts | 230° |
| 2026-05-04 00:25 | 34.43005 | 135.23312 | 33 ft | 18 kts | 320° |
| 2026-05-04 00:25 | 34.43117 | 135.23204 | 33 ft | 22 kts | 321° |
| 2026-05-04 00:25 | 34.43246 | 135.23079 | 33 ft | 25 kts | 321° |
| 2026-05-04 00:26 | 34.43387 | 135.22942 | 33 ft | 26 kts | 320° |
| 2026-05-04 00:26 | 34.43538 | 135.22792 | 33 ft | 28 kts | 321° |
| 2026-05-04 00:26 | 34.43689 | 135.22646 | 33 ft | 28 kts | 320° |
| 2026-05-04 00:26 | 34.43837 | 135.22505 | 33 ft | 27 kts | 328° |
| 2026-05-04 00:27 | 34.43931 | 135.22534 | 33 ft | 24 kts | 62° |
| 2026-05-04 00:27 | 34.44031 | 135.22713 | 33 ft | 27 kts | 50° |
| 2026-05-04 00:27 | 34.44159 | 135.22905 | 33 ft | 31 kts | 50° |
| 2026-05-04 00:27 | 34.44291 | 135.23100 | 33 ft | 34 kts | 50° |
| 2026-05-04 00:28 | 34.44452 | 135.23340 | 33 ft | 38 kts | 49° |
| 2026-05-04 00:28 | 34.44627 | 135.23601 | 33 ft | 39 kts | 50° |
| 2026-05-04 00:28 | 34.44793 | 135.23850 | 33 ft | 36 kts | 51° |
| 2026-05-04 00:28 | 34.44938 | 135.24063 | 33 ft | 21 kts | 47° |
| 2026-05-04 00:29 | 34.45025 | 135.24078 | 33 ft | 9 kts | 326° |
| 2026-05-04 00:29 | 34.45074 | 135.24033 | 33 ft | 8 kts | 322° |
| 2026-05-04 00:29 | 34.45107 | 135.23985 | 33 ft | 7 kts | 284° |
| 2026-05-04 00:29 | 34.45084 | 135.23936 | 33 ft | 7 kts | 231° |
| 2026-05-04 00:30 | 34.44936 | 135.23711 | 33 ft | 67 kts | 229° |
| 2026-05-04 00:30 | 34.44514 | 135.23085 | 33 ft | 124 kts | 231° |
| 2026-05-04 00:30 | 34.43861 | 135.22111 | 36 ft | 169 kts | 232° |
| 2026-05-04 00:30 | 34.43108 | 135.20984 | 539 ft | 175 kts | 237° |
| 2026-05-04 00:31 | 34.42370 | 135.19797 | 1188 ft | 180 kts | 237° |
| 2026-05-04 00:31 | 34.41592 | 135.18587 | 1781 ft | 186 kts | 232° |
| 2026-05-04 00:31 | 34.40490 | 135.17595 | 1978 ft | 217 kts | 205° |
| 2026-05-04 00:31 | 34.38873 | 135.17519 | 2251 ft | 250 kts | 164° |
| 2026-05-04 00:32 | 34.37425 | 135.18768 | 2668 ft | 273 kts | 128° |
| 2026-05-04 00:32 | 34.36709 | 135.20944 | 3199 ft | 285 kts | 92° |
| 2026-05-04 00:32 | 34.37083 | 135.23268 | 3877 ft | 287 kts | 58° |
| 2026-05-04 00:32 | 34.38477 | 135.24908 | 4636 ft | 279 kts | 20° |
| 2026-05-04 00:33 | 34.40338 | 135.25336 | 5405 ft | 274 kts | 357° |
| 2026-05-04 00:33 | 34.44019 | 135.26129 | 6955 ft | 283 kts | 34° |
| 2026-05-04 00:33 | 34.45114 | 135.28111 | 7517 ft | 297 kts | 76° |
| 2026-05-04 00:34 | 34.45282 | 135.30611 | 8315 ft | 299 kts | 89° |
| 2026-05-04 00:34 | 34.45402 | 135.33130 | 9187 ft | 297 kts | 81° |
| 2026-05-04 00:34 | 34.45775 | 135.35570 | 9838 ft | 303 kts | 77° |
| 2026-05-04 00:34 | 34.46116 | 135.38045 | 10544 ft | 308 kts | 81° |
| 2026-05-04 00:35 | 34.46435 | 135.40714 | 10805 ft | 331 kts | 80° |
| 2026-05-04 00:35 | 34.46829 | 135.43570 | 11045 ft | 353 kts | 79° |
| 2026-05-04 00:35 | 34.47252 | 135.46501 | 11587 ft | 365 kts | 79° |
| 2026-05-04 00:35 | 34.47695 | 135.49577 | 12301 ft | 372 kts | 79° |
| 2026-05-04 00:36 | 34.48146 | 135.52681 | 13040 ft | 378 kts | 79° |
| 2026-05-04 00:36 | 34.48606 | 135.55833 | 13794 ft | 384 kts | 78° |
| 2026-05-04 00:36 | 34.49069 | 135.59009 | 14537 ft | 389 kts | 78° |
| 2026-05-04 00:36 | 34.49523 | 135.62120 | 15247 ft | 394 kts | 78° |
| 2026-05-04 00:37 | 34.50022 | 135.65549 | 16002 ft | 399 kts | 79° |
| 2026-05-04 00:37 | 34.50502 | 135.68848 | 16695 ft | 405 kts | 79° |
| 2026-05-04 00:37 | 34.50995 | 135.72240 | 17381 ft | 410 kts | 79° |
| 2026-05-04 00:37 | 34.51485 | 135.75624 | 18038 ft | 415 kts | 79° |
| 2026-05-04 00:38 | 34.51984 | 135.79071 | 18677 ft | 420 kts | 78° |
| 2026-05-04 00:38 | 34.52488 | 135.82562 | 19312 ft | 424 kts | 78° |
| 2026-05-04 00:38 | 34.52993 | 135.86070 | 19913 ft | 429 kts | 78° |
| 2026-05-04 00:38 | 34.53507 | 135.89639 | 20508 ft | 434 kts | 78° |
| 2026-05-04 00:39 | 34.53956 | 135.92729 | 21004 ft | 437 kts | 77° |
| 2026-05-04 00:39 | 34.54658 | 135.96298 | 21555 ft | 441 kts | 71° |
| 2026-05-04 00:39 | 34.55654 | 135.99863 | 22119 ft | 444 kts | 68° |
| 2026-05-04 00:39 | 34.56694 | 136.03395 | 22657 ft | 448 kts | 68° |
| 2026-05-04 00:40 | 34.57729 | 136.06992 | 23184 ft | 452 kts | 68° |
| 2026-05-04 00:40 | 34.58761 | 136.10585 | 23693 ft | 456 kts | 68° |
| 2026-05-04 00:40 | 34.59821 | 136.14250 | 24188 ft | 461 kts | 68° |
| 2026-05-04 00:40 | 34.60890 | 136.17931 | 24668 ft | 465 kts | 68° |
| 2026-05-04 00:41 | 34.61972 | 136.21652 | 25142 ft | 469 kts | 68° |
| 2026-05-04 00:41 | 34.63047 | 136.25349 | 25588 ft | 473 kts | 68° |
| 2026-05-04 00:41 | 34.64148 | 136.29134 | 26026 ft | 477 kts | 68° |
| 2026-05-04 00:41 | 34.65263 | 136.32973 | 26482 ft | 480 kts | 68° |
| 2026-05-04 00:42 | 34.66373 | 136.36793 | 26897 ft | 484 kts | 68° |
| 2026-05-04 00:42 | 34.67504 | 136.40689 | 27327 ft | 487 kts | 68° |
| 2026-05-04 00:42 | 34.68641 | 136.44608 | 27726 ft | 491 kts | 68° |
| 2026-05-04 00:42 | 34.69770 | 136.48505 | 28117 ft | 494 kts | 68° |
| 2026-05-04 00:43 | 34.70925 | 136.52495 | 28494 ft | 498 kts | 68° |
| 2026-05-04 00:43 | 34.72077 | 136.56483 | 28895 ft | 500 kts | 68° |
| 2026-05-04 00:43 | 34.73225 | 136.60460 | 29252 ft | 503 kts | 68° |
| 2026-05-04 00:43 | 34.74396 | 136.64519 | 29700 ft | 503 kts | 68° |
| 2026-05-04 00:44 | 34.75490 | 136.68324 | 30221 ft | 501 kts | 68° |
| 2026-05-04 00:44 | 34.76644 | 136.72337 | 30658 ft | 501 kts | 68° |
| 2026-05-04 00:44 | 34.77794 | 136.76341 | 31084 ft | 501 kts | 68° |
| 2026-05-04 00:44 | 34.78946 | 136.80360 | 31507 ft | 500 kts | 68° |
| 2026-05-04 00:45 | 34.80084 | 136.84335 | 31917 ft | 500 kts | 68° |
| 2026-05-04 00:45 | 34.81211 | 136.88303 | 32278 ft | 500 kts | 69° |
| 2026-05-04 00:45 | 34.82073 | 136.92184 | 32606 ft | 503 kts | 76° |
| 2026-05-04 00:45 | 34.82556 | 136.96457 | 32727 ft | 509 kts | 85° |
| 2026-05-04 00:46 | 34.82436 | 137.00661 | 32724 ft | 510 kts | 95° |
| 2026-05-04 00:46 | 34.81443 | 137.08969 | 32723 ft | 507 kts | 97° |
| 2026-05-04 00:47 | 34.80550 | 137.17532 | 32723 ft | 507 kts | 96° |
| 2026-05-04 00:47 | 34.79671 | 137.26057 | 32723 ft | 507 kts | 96° |
| 2026-05-04 00:48 | 34.78728 | 137.34547 | 32710 ft | 506 kts | 97° |
| 2026-05-04 00:48 | 34.77780 | 137.43068 | 32691 ft | 508 kts | 97° |
| 2026-05-04 00:49 | 34.76817 | 137.51585 | 32672 ft | 507 kts | 97° |
| 2026-05-04 00:49 | 34.75810 | 137.60124 | 32669 ft | 507 kts | 97° |
| 2026-05-04 00:50 | 34.74857 | 137.68280 | 32669 ft | 507 kts | 97° |
| 2026-05-04 00:50 | 34.73951 | 137.76675 | 32669 ft | 507 kts | 96° |
| 2026-05-04 00:51 | 34.73085 | 137.85248 | 32668 ft | 507 kts | 96° |
| 2026-05-04 00:51 | 34.72241 | 137.93756 | 32669 ft | 507 kts | 96° |
| 2026-05-04 00:52 | 34.71450 | 138.02147 | 32668 ft | 507 kts | 93° |
| 2026-05-04 00:52 | 34.71411 | 138.10710 | 32669 ft | 506 kts | 86° |
| 2026-05-04 00:53 | 34.71531 | 138.19112 | 32668 ft | 507 kts | 88° |
| 2026-05-04 00:53 | 34.71603 | 138.27506 | 32669 ft | 505 kts | 88° |
| 2026-05-04 00:54 | 34.71663 | 138.36008 | 32668 ft | 505 kts | 88° |
| 2026-05-04 00:54 | 34.71695 | 138.44388 | 32632 ft | 505 kts | 88° |
| 2026-05-04 00:54 | 34.71706 | 138.48630 | 31931 ft | 507 kts | 88° |
| 2026-05-04 00:55 | 34.71697 | 138.52954 | 31084 ft | 509 kts | 89° |
| 2026-05-04 00:55 | 34.71662 | 138.57234 | 30210 ft | 512 kts | 89° |
| 2026-05-04 00:55 | 34.71629 | 138.61560 | 29294 ft | 516 kts | 89° |
| 2026-05-04 00:55 | 34.71608 | 138.65898 | 28337 ft | 519 kts | 89° |
| 2026-05-04 00:56 | 34.71595 | 138.70334 | 27320 ft | 523 kts | 89° |
| 2026-05-04 00:56 | 34.71583 | 138.74753 | 26426 ft | 522 kts | 89° |
| 2026-05-04 00:56 | 34.71570 | 138.79138 | 25725 ft | 518 kts | 89° |
| 2026-05-04 00:56 | 34.71561 | 138.82257 | 25197 ft | 515 kts | 89° |
| 2026-05-04 00:57 | 34.71545 | 138.86661 | 24443 ft | 512 kts | 89° |
| 2026-05-04 00:57 | 34.71526 | 138.90968 | 23697 ft | 509 kts | 89° |
| 2026-05-04 00:57 | 34.71507 | 138.95293 | 22938 ft | 506 kts | 89° |
| 2026-05-04 00:57 | 34.71488 | 138.99361 | 22201 ft | 495 kts | 90° |
| 2026-05-04 00:58 | 34.71468 | 139.03461 | 21468 ft | 474 kts | 90° |
| 2026-05-04 00:58 | 34.71448 | 139.07400 | 20756 ft | 456 kts | 91° |
| 2026-05-04 00:58 | 34.71429 | 139.11206 | 20079 ft | 445 kts | 91° |
| 2026-05-04 00:58 | 34.71407 | 139.14973 | 19376 ft | 443 kts | 92° |
| 2026-05-04 00:59 | 34.71386 | 139.18689 | 18683 ft | 432 kts | 92° |
| 2026-05-04 00:59 | 34.71366 | 139.22218 | 18032 ft | 416 kts | 92° |
| 2026-05-04 00:59 | 34.71343 | 139.25696 | 17389 ft | 409 kts | 92° |
| 2026-05-04 00:59 | 34.71318 | 139.29172 | 16727 ft | 407 kts | 92° |
| 2026-05-04 01:00 | 34.71294 | 139.32548 | 16080 ft | 402 kts | 92° |
| 2026-05-04 01:00 | 34.71271 | 139.35974 | 15431 ft | 398 kts | 91° |
| 2026-05-04 01:00 | 34.71456 | 139.39270 | 14925 ft | 391 kts | 83° |
| 2026-05-04 01:00 | 34.72056 | 139.42503 | 14583 ft | 387 kts | 73° |
| 2026-05-04 01:01 | 34.73122 | 139.45500 | 14397 ft | 395 kts | 63° |
| 2026-05-04 01:01 | 34.74473 | 139.48428 | 14213 ft | 390 kts | 61° |
| 2026-05-04 01:01 | 34.75772 | 139.51242 | 14050 ft | 384 kts | 62° |
| 2026-05-04 01:01 | 34.77071 | 139.54118 | 13863 ft | 384 kts | 62° |
| 2026-05-04 01:02 | 34.78348 | 139.56931 | 13534 ft | 376 kts | 62° |
| 2026-05-04 01:02 | 34.79599 | 139.59671 | 13377 ft | 364 kts | 62° |
| 2026-05-04 01:02 | 34.80814 | 139.62335 | 13215 ft | 352 kts | 62° |
| 2026-05-04 01:02 | 34.81976 | 139.64885 | 13059 ft | 341 kts | 62° |
| 2026-05-04 01:03 | 34.83118 | 139.67357 | 12906 ft | 331 kts | 59° |
| 2026-05-04 01:03 | 34.84604 | 139.69449 | 12694 ft | 323 kts | 36° |
| 2026-05-04 01:03 | 34.86540 | 139.70537 | 13065 ft | 295 kts | 17° |
| 2026-05-04 01:03 | 34.88492 | 139.71301 | 13146 ft | 298 kts | 19° |
| 2026-05-04 01:04 | 34.90437 | 139.72147 | 13124 ft | 296 kts | 19° |
| 2026-05-04 01:04 | 34.92383 | 139.72966 | 13123 ft | 294 kts | 18° |
| 2026-05-04 01:04 | 34.94334 | 139.73766 | 13117 ft | 294 kts | 17° |
| 2026-05-04 01:04 | 34.96255 | 139.74554 | 13112 ft | 293 kts | 17° |
| 2026-05-04 01:05 | 34.98174 | 139.75406 | 13102 ft | 293 kts | 25° |
| 2026-05-04 01:05 | 34.99805 | 139.76888 | 13100 ft | 294 kts | 44° |
| 2026-05-04 01:05 | 35.01245 | 139.78690 | 13080 ft | 294 kts | 43° |
| 2026-05-04 01:05 | 35.02712 | 139.80434 | 13066 ft | 293 kts | 42° |
| 2026-05-04 01:06 | 35.04160 | 139.82144 | 13051 ft | 292 kts | 42° |
| 2026-05-04 01:06 | 35.05635 | 139.83905 | 13039 ft | 292 kts | 42° |
| 2026-05-04 01:06 | 35.07078 | 139.85626 | 13024 ft | 293 kts | 42° |
| 2026-05-04 01:06 | 35.08472 | 139.87454 | 13011 ft | 294 kts | 54° |
| 2026-05-04 01:07 | 35.09248 | 139.89755 | 13004 ft | 296 kts | 83° |
| 2026-05-04 01:07 | 35.09093 | 139.92256 | 12997 ft | 297 kts | 107° |
| 2026-05-04 01:07 | 35.08211 | 139.94534 | 12994 ft | 296 kts | 124° |
| 2026-05-04 01:07 | 35.07069 | 139.96611 | 13021 ft | 295 kts | 125° |
| 2026-05-04 01:08 | 35.05960 | 139.98704 | 13038 ft | 296 kts | 124° |
| 2026-05-04 01:08 | 35.04843 | 140.00824 | 13036 ft | 296 kts | 124° |
| 2026-05-04 01:08 | 35.03711 | 140.02949 | 13037 ft | 296 kts | 124° |
| 2026-05-04 01:08 | 35.02631 | 140.05074 | 13034 ft | 296 kts | 117° |
| 2026-05-04 01:09 | 35.02024 | 140.07478 | 13043 ft | 297 kts | 101° |
| 2026-05-04 01:09 | 35.01642 | 140.09929 | 13036 ft | 297 kts | 103° |
| 2026-05-04 01:09 | 35.01197 | 140.12395 | 13037 ft | 297 kts | 104° |
| 2026-05-04 01:09 | 35.00745 | 140.14857 | 13037 ft | 297 kts | 103° |
| 2026-05-04 01:10 | 35.00301 | 140.17320 | 13036 ft | 296 kts | 103° |
| 2026-05-04 01:10 | 34.99970 | 140.19797 | 13034 ft | 297 kts | 91° |
| 2026-05-04 01:10 | 35.00148 | 140.22314 | 13039 ft | 298 kts | 83° |
| 2026-05-04 01:10 | 35.00394 | 140.24840 | 13036 ft | 298 kts | 84° |
| 2026-05-04 01:11 | 35.00593 | 140.27367 | 13037 ft | 298 kts | 85° |
| 2026-05-04 01:11 | 35.00796 | 140.29877 | 13038 ft | 298 kts | 84° |
| 2026-05-04 01:11 | 35.01004 | 140.32393 | 13036 ft | 298 kts | 83° |
| 2026-05-04 01:11 | 35.01513 | 140.34813 | 13038 ft | 297 kts | 64° |
| 2026-05-04 01:12 | 35.02459 | 140.37059 | 13036 ft | 298 kts | 61° |
| 2026-05-04 01:12 | 35.03400 | 140.39327 | 13038 ft | 297 kts | 62° |
| 2026-05-04 01:12 | 35.04311 | 140.41599 | 13037 ft | 296 kts | 62° |
| 2026-05-04 01:12 | 35.05230 | 140.43837 | 13038 ft | 296 kts | 59° |
| 2026-05-04 01:13 | 35.06516 | 140.45767 | 13037 ft | 292 kts | 34° |
| 2026-05-04 01:13 | 35.08338 | 140.46744 | 13039 ft | 286 kts | 6° |
| 2026-05-04 01:13 | 35.10293 | 140.46800 | 13037 ft | 283 kts | 349° |
| 2026-05-04 01:13 | 35.12136 | 140.46007 | 13039 ft | 276 kts | 323° |
| 2026-05-04 01:14 | 35.13628 | 140.44551 | 13036 ft | 276 kts | 318° |
| 2026-05-04 01:14 | 35.15118 | 140.43118 | 12887 ft | 268 kts | 320° |
| 2026-05-04 01:14 | 35.16601 | 140.41739 | 12610 ft | 272 kts | 320° |
| 2026-05-04 01:14 | 35.18112 | 140.40312 | 12280 ft | 273 kts | 320° |
| 2026-05-04 01:15 | 35.19604 | 140.38905 | 11954 ft | 271 kts | 320° |
| 2026-05-04 01:15 | 35.21093 | 140.37501 | 11628 ft | 269 kts | 320° |
| 2026-05-04 01:15 | 35.22570 | 140.36105 | 11303 ft | 267 kts | 320° |
| 2026-05-04 01:15 | 35.24036 | 140.34721 | 10981 ft | 264 kts | 320° |
| 2026-05-04 01:16 | 35.25492 | 140.33345 | 10661 ft | 262 kts | 320° |
| 2026-05-04 01:16 | 35.26959 | 140.31957 | 10341 ft | 269 kts | 320° |
| 2026-05-04 01:16 | 35.28375 | 140.30617 | 10026 ft | 267 kts | 320° |
| 2026-05-04 01:16 | 35.29831 | 140.29240 | 9705 ft | 265 kts | 320° |
| 2026-05-04 01:17 | 35.31285 | 140.27863 | 9385 ft | 263 kts | 320° |
| 2026-05-04 01:17 | 35.32730 | 140.26494 | 9067 ft | 261 kts | 320° |
| 2026-05-04 01:17 | 35.34152 | 140.25145 | 8754 ft | 259 kts | 320° |
| 2026-05-04 01:17 | 35.35577 | 140.23793 | 8440 ft | 257 kts | 320° |
| 2026-05-04 01:18 | 35.37011 | 140.22482 | 8132 ft | 264 kts | 326° |
| 2026-05-04 01:18 | 35.38670 | 140.21729 | 8025 ft | 264 kts | 349° |
| 2026-05-04 01:18 | 35.40528 | 140.21391 | 8040 ft | 268 kts | 348° |
| 2026-05-04 01:18 | 35.42345 | 140.20981 | 8038 ft | 268 kts | 347° |
| 2026-05-04 01:19 | 35.44194 | 140.20570 | 8038 ft | 268 kts | 348° |
| 2026-05-04 01:19 | 35.46027 | 140.20171 | 8036 ft | 268 kts | 348° |
| 2026-05-04 01:19 | 35.47868 | 140.19768 | 8037 ft | 268 kts | 348° |
| 2026-05-04 01:19 | 35.49575 | 140.19395 | 8037 ft | 268 kts | 348° |
| 2026-05-04 01:20 | 35.51439 | 140.18990 | 8036 ft | 268 kts | 348° |
| 2026-05-04 01:20 | 35.53296 | 140.18585 | 8036 ft | 268 kts | 348° |
| 2026-05-04 01:20 | 35.55075 | 140.18198 | 8039 ft | 268 kts | 348° |
| 2026-05-04 01:20 | 35.56889 | 140.17801 | 8037 ft | 268 kts | 348° |
| 2026-05-04 01:21 | 35.58725 | 140.17400 | 8038 ft | 268 kts | 348° |
| 2026-05-04 01:21 | 35.60533 | 140.17006 | 8037 ft | 268 kts | 348° |
| 2026-05-04 01:21 | 35.62380 | 140.16602 | 8038 ft | 268 kts | 348° |
| 2026-05-04 01:21 | 35.64206 | 140.16203 | 8031 ft | 267 kts | 348° |
| 2026-05-04 01:22 | 35.64341 | 140.16174 | 8027 ft | 266 kts | 348° |